sensor_id;sensor_type;location;lat;lon;timestamp;pressure;altitude;pressure_sealevel;temperature;humidity
60676;BME280;46716;38.014;-7.874;2022-11-18T00:01:34;99893.41;;;13.33;100.00
60676;BME280;46716;38.014;-7.874;2022-11-18T00:03:36;99887.41;;;13.30;100.00
60676;BME280;46716;38.014;-7.874;2022-11-18T00:05:37;99875.63;;;13.19;100.00
60676;BME280;46716;38.014;-7.874;2022-11-18T00:07:38;99877.41;;;13.19;100.00
60676;BME280;46716;38.014;-7.874;2022-11-18T00:09:39;99874.84;;;13.17;100.00
60676;BME280;46716;38.014;-7.874;2022-11-18T00:11:39;99865.47;;;13.11;100.00
60676;BME280;46716;38.014;-7.874;2022-11-18T00:13:59;99869.06;;;13.10;100.00
60676;BME280;46716;38.014;-7.874;2022-11-18T00:16:18;99876.16;;;13.10;100.00
60676;BME280;46716;38.014;-7.874;2022-11-18T00:18:19;99891.22;;;13.09;100.00
60676;BME280;46716;38.014;-7.874;2022-11-18T00:20:20;99881.53;;;13.08;100.00
60676;BME280;46716;38.014;-7.874;2022-11-18T00:22:21;99878.06;;;13.08;100.00
60676;BME280;46716;38.014;-7.874;2022-11-18T00:24:22;99885.84;;;13.11;100.00
60676;BME280;46716;38.014;-7.874;2022-11-18T00:26:23;99881.19;;;13.14;100.00
60676;BME280;46716;38.014;-7.874;2022-11-18T00:28:24;99878.38;;;13.18;100.00
60676;BME280;46716;38.014;-7.874;2022-11-18T00:30:25;99891.28;;;13.24;100.00
60676;BME280;46716;38.014;-7.874;2022-11-18T00:32:26;99896.59;;;13.24;100.00
60676;BME280;46716;38.014;-7.874;2022-11-18T00:34:27;99892.41;;;13.20;100.00
60676;BME280;46716;38.014;-7.874;2022-11-18T00:36:28;99894.19;;;13.19;100.00
60676;BME280;46716;38.014;-7.874;2022-11-18T00:38:29;99890.59;;;13.20;100.00
60676;BME280;46716;38.014;-7.874;2022-11-18T00:40:30;99889.59;;;13.23;100.00
60676;BME280;46716;38.014;-7.874;2022-11-18T00:42:31;99881.72;;;13.21;100.00
60676;BME280;46716;38.014;-7.874;2022-11-18T00:44:50;99884.09;;;13.26;100.00
60676;BME280;46716;38.014;-7.874;2022-11-18T00:46:51;99878.81;;;13.26;100.00
60676;BME280;46716;38.014;-7.874;2022-11-18T00:48:52;99887.31;;;13.31;100.00
60676;BME280;46716;38.014;-7.874;2022-11-18T00:50:55;99881.06;;;13.32;100.00
60676;BME280;46716;38.014;-7.874;2022-11-18T00:52:56;99881.84;;;13.34;100.00
60676;BME280;46716;38.014;-7.874;2022-11-18T00:54:57;99887.31;;;13.31;100.00
60676;BME280;46716;38.014;-7.874;2022-11-18T00:56:58;99888.19;;;13.32;100.00
60676;BME280;46716;38.014;-7.874;2022-11-18T00:58:59;99882.91;;;13.32;100.00
60676;BME280;46716;38.014;-7.874;2022-11-18T01:01:00;99885.53;;;13.32;100.00
60676;BME280;46716;38.014;-7.874;2022-11-18T01:03:01;99871.50;;;13.30;100.00
60676;BME280;46716;38.014;-7.874;2022-11-18T01:05:03;99882.97;;;13.30;100.00
60676;BME280;46716;38.014;-7.874;2022-11-18T01:07:04;99884.09;;;13.26;100.00
60676;BME280;46716;38.014;-7.874;2022-11-18T01:09:05;99878.81;;;13.26;100.00
60676;BME280;46716;38.014;-7.874;2022-11-18T01:11:06;99884.28;;;13.23;100.00
60676;BME280;46716;38.014;-7.874;2022-11-18T01:13:26;99870.75;;;13.11;100.00
60676;BME280;46716;38.014;-7.874;2022-11-18T01:15:28;99867.72;;;13.03;100.00
60676;BME280;46716;38.014;-7.874;2022-11-18T01:17:30;99867.88;;;13.00;100.00
60676;BME280;46716;38.014;-7.874;2022-11-18T01:19:31;99868.41;;;12.90;100.00
60676;BME280;46716;38.014;-7.874;2022-11-18T01:21:32;99862.78;;;12.81;100.00
60676;BME280;46716;38.014;-7.874;2022-11-18T01:23:33;99857.88;;;12.73;100.00
60676;BME280;46716;38.014;-7.874;2022-11-18T01:25:36;99854.75;;;12.66;100.00
60676;BME280;46716;38.014;-7.874;2022-11-18T01:27:37;99858.56;;;12.60;100.00
60676;BME280;46716;38.014;-7.874;2022-11-18T01:29:38;99854.47;;;12.55;100.00
60676;BME280;46716;38.014;-7.874;2022-11-18T01:31:39;99850.97;;;12.54;100.00
60676;BME280;46716;38.014;-7.874;2022-11-18T01:33:41;99854.53;;;12.53;100.00
60676;BME280;46716;38.014;-7.874;2022-11-18T01:35:43;99859.75;;;12.55;100.00
60676;BME280;46716;38.014;-7.874;2022-11-18T01:37:44;99852.69;;;12.55;100.00
60676;BME280;46716;38.014;-7.874;2022-11-18T01:39:45;99852.69;;;12.55;100.00
60676;BME280;46716;38.014;-7.874;2022-11-18T01:41:46;99855.84;;;12.62;100.00
60676;BME280;46716;38.014;-7.874;2022-11-18T01:43:58;99844.41;;;12.61;100.00
60676;BME280;46716;38.014;-7.874;2022-11-18T01:45:59;99859.00;;;12.69;100.00
60676;BME280;46716;38.014;-7.874;2022-11-18T01:48:27;99859.59;;;12.74;100.00
60676;BME280;46716;38.014;-7.874;2022-11-18T01:50:33;99851.56;;;12.75;100.00
60676;BME280;46716;38.014;-7.874;2022-11-18T01:52:35;99856.44;;;12.83;100.00
60676;BME280;46716;38.014;-7.874;2022-11-18T01:54:39;99850.19;;;12.84;100.00
60676;BME280;46716;38.014;-7.874;2022-11-18T01:56:44;99841.25;;;12.87;100.00
60676;BME280;46716;38.014;-7.874;2022-11-18T01:58:53;99850.72;;;12.91;100.00
60676;BME280;46716;38.014;-7.874;2022-11-18T02:00:55;99836.50;;;12.92;100.00
60676;BME280;46716;38.014;-7.874;2022-11-18T02:02:57;99846.28;;;12.92;100.00
60676;BME280;46716;38.014;-7.874;2022-11-18T02:05:02;99849.75;;;12.92;100.00
60676;BME280;46716;38.014;-7.874;2022-11-18T02:07:04;99853.28;;;12.93;100.00
60676;BME280;46716;38.014;-7.874;2022-11-18T02:09:06;99853.09;;;12.96;100.00
60676;BME280;46716;38.014;-7.874;2022-11-18T02:11:12;99848.56;;;12.98;100.00
60676;BME280;46716;38.014;-7.874;2022-11-18T02:13:32;99839.59;;;13.00;100.00
60676;BME280;46716;38.014;-7.874;2022-11-18T02:18:04;99857.78;;;13.07;100.00
60676;BME280;46716;38.014;-7.874;2022-11-18T02:20:21;99848.91;;;13.08;100.00
60676;BME280;46716;38.014;-7.874;2022-11-18T02:30:07;99842.06;;;12.87;100.00
60676;BME280;46716;38.014;-7.874;2022-11-18T02:32:13;99847.03;;;12.77;100.00
60676;BME280;46716;38.014;-7.874;2022-11-18T02:36:27;99840.13;;;12.59;100.00
60676;BME280;46716;38.014;-7.874;2022-11-18T02:38:36;99843.13;;;12.52;100.00
60676;BME280;46716;38.014;-7.874;2022-11-18T02:42:45;99839.50;;;12.37;100.00
60676;BME280;46716;38.014;-7.874;2022-11-18T02:44:54;99839.59;;;12.36;100.00
60676;BME280;46716;38.014;-7.874;2022-11-18T02:47:00;99850.94;;;12.38;100.00
60676;BME280;46716;38.014;-7.874;2022-11-18T02:49:09;99842.25;;;12.36;100.00
60676;BME280;46716;38.014;-7.874;2022-11-18T02:51:12;99844.91;;;12.36;100.00
60676;BME280;46716;38.014;-7.874;2022-11-18T02:53:19;99838.72;;;12.35;100.00
60676;BME280;46716;38.014;-7.874;2022-11-18T02:55:21;99839.50;;;12.37;100.00
60676;BME280;46716;38.014;-7.874;2022-11-18T02:57:24;99836.78;;;12.39;100.00
60676;BME280;46716;38.014;-7.874;2022-11-18T02:59:27;99839.28;;;12.42;100.00
60676;BME280;46716;38.014;-7.874;2022-11-18T03:01:29;99841.06;;;12.42;100.00
60676;BME280;46716;38.014;-7.874;2022-11-18T03:03:35;99839.34;;;12.41;100.00
60676;BME280;46716;38.014;-7.874;2022-11-18T03:05:46;99845.72;;;12.36;100.00
60676;BME280;46716;38.014;-7.874;2022-11-18T03:07:53;99845.13;;;12.31;100.00
60676;BME280;46716;38.014;-7.874;2022-11-18T03:09:57;99836.56;;;12.26;100.00
60676;BME280;46716;38.014;-7.874;2022-11-18T03:14:31;99829.75;;;12.22;100.00
60676;BME280;46716;38.014;-7.874;2022-11-18T03:16:42;99829.91;;;12.19;100.00
60676;BME280;46716;38.014;-7.874;2022-11-18T03:18:54;99823.06;;;12.14;100.00
60676;BME280;46716;38.014;-7.874;2022-11-18T03:21:16;99828.28;;;12.16;100.00
60676;BME280;46716;38.014;-7.874;2022-11-18T03:23:32;99830.78;;;12.19;100.00
60676;BME280;46716;38.014;-7.874;2022-11-18T03:25:58;99829.50;;;12.26;100.00
60676;BME280;46716;38.014;-7.874;2022-11-18T03:30:29;99824.06;;;12.46;100.00
60676;BME280;46716;38.014;-7.874;2022-11-18T03:32:36;99831.59;;;12.54;100.00
60676;BME280;46716;38.014;-7.874;2022-11-18T03:34:48;99826.91;;;12.59;100.00
60676;BME280;46716;38.014;-7.874;2022-11-18T03:36:54;99838.78;;;12.68;100.00
60676;BME280;46716;38.014;-7.874;2022-11-18T03:38:58;99836.69;;;12.73;100.00
60676;BME280;46716;38.014;-7.874;2022-11-18T03:41:04;99832.84;;;12.78;100.00
60676;BME280;46716;38.014;-7.874;2022-11-18T03:43:10;99841.75;;;12.77;100.00
60676;BME280;46716;38.014;-7.874;2022-11-18T03:45:19;99846.69;;;12.84;100.00
60676;BME280;46716;38.014;-7.874;2022-11-18T03:47:26;99852.25;;;12.79;100.00
60676;BME280;46716;38.014;-7.874;2022-11-18T03:49:34;99849.94;;;12.73;100.00
60676;BME280;46716;38.014;-7.874;2022-11-18T03:51:50;99836.28;;;12.64;100.00
60676;BME280;46716;38.014;-7.874;2022-11-18T03:53:58;99829.72;;;12.56;100.00
60676;BME280;46716;38.014;-7.874;2022-11-18T03:56:16;99839.69;;;12.50;100.00
60676;BME280;46716;38.014;-7.874;2022-11-18T03:58:26;99843.69;;;12.42;100.00
60676;BME280;46716;38.014;-7.874;2022-11-18T04:00:36;99850.25;;;12.34;100.00
60676;BME280;46716;38.014;-7.874;2022-11-18T04:02:39;99840.16;;;12.25;100.00
60676;BME280;46716;38.014;-7.874;2022-11-18T04:04:41;99845.78;;;12.19;100.00
60676;BME280;46716;38.014;-7.874;2022-11-18T04:06:55;99847.69;;;12.17;100.00
60676;BME280;46716;38.014;-7.874;2022-11-18T04:09:00;99834.69;;;12.12;100.00
60676;BME280;46716;38.014;-7.874;2022-11-18T04:11:14;99843.00;;;12.04;100.00
60676;BME280;46716;38.014;-7.874;2022-11-18T04:13:36;99837.03;;;12.00;100.00
60676;BME280;46716;38.014;-7.874;2022-11-18T04:15:40;99833.59;;;11.98;100.00
60676;BME280;46716;38.014;-7.874;2022-11-18T04:17:41;99842.41;;;11.99;100.00
60676;BME280;46716;38.014;-7.874;2022-11-18T04:19:42;99832.56;;;12.01;100.00
60676;BME280;46716;38.014;-7.874;2022-11-18T04:21:43;99831.56;;;12.04;100.00
60676;BME280;46716;38.014;-7.874;2022-11-18T04:23:44;99838.19;;;12.12;100.00
60676;BME280;46716;38.014;-7.874;2022-11-18T04:25:45;99840.50;;;12.19;100.00
60676;BME280;46716;38.014;-7.874;2022-11-18T04:27:46;99831.47;;;12.23;100.00
60676;BME280;46716;38.014;-7.874;2022-11-18T04:29:47;99820.69;;;12.26;100.00
60676;BME280;46716;38.014;-7.874;2022-11-18T04:31:48;99829.41;;;12.28;100.00
60676;BME280;46716;38.014;-7.874;2022-11-18T04:33:49;99830.97;;;12.32;100.00
60676;BME280;46716;38.014;-7.874;2022-11-18T04:35:49;99844.03;;;12.35;100.00
60676;BME280;46716;38.014;-7.874;2022-11-18T04:37:50;99839.44;;;12.39;100.00
60676;BME280;46716;38.014;-7.874;2022-11-18T04:39:51;99841.06;;;12.42;100.00
60676;BME280;46716;38.014;-7.874;2022-11-18T04:41:52;99842.75;;;12.43;100.00
60676;BME280;46716;38.014;-7.874;2022-11-18T04:43:56;99847.13;;;12.44;100.00
60676;BME280;46716;38.014;-7.874;2022-11-18T04:45:57;99856.59;;;12.48;100.00
60676;BME280;46716;38.014;-7.874;2022-11-18T04:47:58;99854.78;;;12.48;100.00
60676;BME280;46716;38.014;-7.874;2022-11-18T04:49:59;99855.56;;;12.50;100.00
60676;BME280;46716;38.014;-7.874;2022-11-18T04:52:00;99862.56;;;12.51;100.00
60676;BME280;46716;38.014;-7.874;2022-11-18T04:54:02;99854.91;;;12.47;100.00
60676;BME280;46716;38.014;-7.874;2022-11-18T04:56:05;99859.16;;;12.49;100.00
60676;BME280;46716;38.014;-7.874;2022-11-18T04:58:06;99850.59;;;12.44;100.00
60676;BME280;46716;38.014;-7.874;2022-11-18T05:00:07;99862.06;;;12.45;100.00
60676;BME280;46716;38.014;-7.874;2022-11-18T05:02:08;99862.84;;;12.47;100.00
60676;BME280;46716;38.014;-7.874;2022-11-18T05:04:14;99857.56;;;12.47;100.00
60676;BME280;46716;38.014;-7.874;2022-11-18T05:06:15;99857.56;;;12.47;100.00
60676;BME280;46716;38.014;-7.874;2022-11-18T05:08:16;99862.66;;;12.50;100.00
60676;BME280;46716;38.014;-7.874;2022-11-18T05:10:17;99860.00;;;12.50;100.00
60676;BME280;46716;38.014;-7.874;2022-11-18T05:12:18;99848.41;;;12.52;100.00
60676;BME280;46716;38.014;-7.874;2022-11-18T05:14:37;99851.91;;;12.53;100.00
60676;BME280;46716;38.014;-7.874;2022-11-18T05:16:38;99861.66;;;12.52;100.00
60676;BME280;46716;38.014;-7.874;2022-11-18T05:18:39;99855.41;;;12.54;100.00
60676;BME280;46716;38.014;-7.874;2022-11-18T05:20:40;99850.13;;;12.54;100.00
60676;BME280;46716;38.014;-7.874;2022-11-18T05:22:41;99853.00;;;12.49;100.00
60676;BME280;46716;38.014;-7.874;2022-11-18T05:24:42;99850.53;;;12.46;100.00
60676;BME280;46716;38.014;-7.874;2022-11-18T05:26:43;99858.56;;;12.44;100.00
60676;BME280;46716;38.014;-7.874;2022-11-18T05:28:44;99843.69;;;12.42;100.00
60676;BME280;46716;38.014;-7.874;2022-11-18T05:30:45;99870.69;;;12.48;100.00
60676;BME280;46716;38.014;-7.874;2022-11-18T05:32:46;99866.16;;;12.50;100.00
60676;BME280;46716;38.014;-7.874;2022-11-18T05:34:47;99870.59;;;12.50;100.00
60676;BME280;46716;38.014;-7.874;2022-11-18T05:36:48;99873.25;;;12.50;100.00
60676;BME280;46716;38.014;-7.874;2022-11-18T05:38:49;99871.53;;;12.49;100.00
60676;BME280;46716;38.014;-7.874;2022-11-18T05:40:50;99873.25;;;12.50;100.00
60676;BME280;46716;38.014;-7.874;2022-11-18T05:42:51;99875.97;;;12.48;100.00
60676;BME280;46716;38.014;-7.874;2022-11-18T05:45:10;99876.25;;;12.44;100.00
60676;BME280;46716;38.014;-7.874;2022-11-18T05:47:11;99865.03;;;12.38;100.00
60676;BME280;46716;38.014;-7.874;2022-11-18T05:49:12;99868.63;;;12.37;100.00
60676;BME280;46716;38.014;-7.874;2022-11-18T05:51:13;99868.63;;;12.37;100.00
60676;BME280;46716;38.014;-7.874;2022-11-18T05:53:17;99868.47;;;12.41;100.00
60676;BME280;46716;38.014;-7.874;2022-11-18T05:55:19;99876.50;;;12.39;100.00
60676;BME280;46716;38.014;-7.874;2022-11-18T05:57:22;99869.56;;;12.36;100.00
60676;BME280;46716;38.014;-7.874;2022-11-18T05:59:23;99867.94;;;12.34;100.00
60676;BME280;46716;38.014;-7.874;2022-11-18T06:03:33;99869.03;;;12.30;100.00
60676;BME280;46716;38.014;-7.874;2022-11-18T06:05:35;99871.53;;;12.33;100.00
60676;BME280;46716;38.014;-7.874;2022-11-18T06:07:43;99857.44;;;12.32;100.00
60676;BME280;46716;38.014;-7.874;2022-11-18T06:09:48;99862.72;;;12.32;100.00
60676;BME280;46716;38.014;-7.874;2022-11-18T06:11:54;99853.25;;;12.28;100.00
60676;BME280;46716;38.014;-7.874;2022-11-18T06:14:00;99853.25;;;12.28;100.00
60676;BME280;46716;38.014;-7.874;2022-11-18T06:16:03;99845.47;;;12.25;100.00
60676;BME280;46716;38.014;-7.874;2022-11-18T06:18:09;99848.34;;;12.20;100.00
60676;BME280;46716;38.014;-7.874;2022-11-18T06:20:11;99851.44;;;12.12;100.00
60676;BME280;46716;38.014;-7.874;2022-11-18T06:22:12;99850.84;;;12.06;100.00
60676;BME280;46716;38.014;-7.874;2022-11-18T06:24:13;99859.91;;;12.01;100.00
60676;BME280;46716;38.014;-7.874;2022-11-18T06:26:15;99864.47;;;11.98;100.00
60676;BME280;46716;38.014;-7.874;2022-11-18T06:28:17;99866.53;;;11.93;100.00
60676;BME280;46716;38.014;-7.874;2022-11-18T06:30:19;99866.59;;;11.91;100.00
60676;BME280;46716;38.014;-7.874;2022-11-18T06:32:20;99873.69;;;11.91;100.00
60676;BME280;46716;38.014;-7.874;2022-11-18T06:34:21;99886.75;;;11.94;100.00
60676;BME280;46716;38.014;-7.874;2022-11-18T06:36:23;99883.22;;;11.93;100.00
60676;BME280;46716;38.014;-7.874;2022-11-18T06:38:24;99900.53;;;12.00;100.00
60676;BME280;46716;38.014;-7.874;2022-11-18T06:40:25;99897.81;;;12.02;100.00
60676;BME280;46716;38.014;-7.874;2022-11-18T06:42:27;99899.50;;;12.03;100.00
60676;BME280;46716;38.014;-7.874;2022-11-18T06:44:47;99902.38;;;11.98;100.00
60676;BME280;46716;38.014;-7.874;2022-11-18T06:46:47;99916.31;;;12.02;100.00
60676;BME280;46716;38.014;-7.874;2022-11-18T06:48:58;99924.25;;;12.02;100.00
60676;BME280;46716;38.014;-7.874;2022-11-18T06:50:59;99927.06;;;11.99;100.00
60676;BME280;46716;38.014;-7.874;2022-11-18T06:52:59;99927.13;;;11.97;100.00
60676;BME280;46716;38.014;-7.874;2022-11-18T06:55:01;99924.72;;;11.93;100.00
60676;BME280;46716;38.014;-7.874;2022-11-18T06:57:02;99916.16;;;11.87;100.00
60676;BME280;46716;38.014;-7.874;2022-11-18T06:59:03;99927.75;;;11.85;100.00
60676;BME280;46716;38.014;-7.874;2022-11-18T07:01:18;99936.72;;;11.82;100.00
60676;BME280;46716;38.014;-7.874;2022-11-18T07:03:21;99944.66;;;11.82;100.00
60676;BME280;46716;38.014;-7.874;2022-11-18T07:05:22;99954.28;;;11.83;100.00
60676;BME280;46716;38.014;-7.874;2022-11-18T07:07:22;99945.47;;;11.83;100.00
60676;BME280;46716;38.014;-7.874;2022-11-18T07:09:23;99945.56;;;11.81;100.00
60676;BME280;46716;38.014;-7.874;2022-11-18T07:11:25;99951.78;;;11.80;100.00
60676;BME280;46716;38.014;-7.874;2022-11-18T07:13:26;99940.69;;;11.73;100.00
60676;BME280;46716;38.014;-7.874;2022-11-18T07:15:27;99943.41;;;11.72;100.00
60676;BME280;46716;38.014;-7.874;2022-11-18T07:17:29;99954.75;;;11.74;100.00
60676;BME280;46716;38.014;-7.874;2022-11-18T07:19:30;99961.84;;;11.73;100.00
60676;BME280;46716;38.014;-7.874;2022-11-18T07:21:31;99967.13;;;11.73;100.00
60676;BME280;46716;38.014;-7.874;2022-11-18T07:23:33;99960.03;;;11.74;100.00
60676;BME280;46716;38.014;-7.874;2022-11-18T07:25:34;99963.59;;;11.73;100.00
60676;BME280;46716;38.014;-7.874;2022-11-18T07:27:35;99964.47;;;11.73;100.00
60676;BME280;46716;38.014;-7.874;2022-11-18T07:29:36;99966.34;;;11.71;100.00
60676;BME280;46716;38.014;-7.874;2022-11-18T07:31:37;99971.41;;;11.76;100.00
60676;BME280;46716;38.014;-7.874;2022-11-18T07:33:40;99971.41;;;11.76;100.00
60676;BME280;46716;38.014;-7.874;2022-11-18T07:35:41;99978.38;;;11.77;100.00
60676;BME280;46716;38.014;-7.874;2022-11-18T07:37:42;99969.44;;;11.80;100.00
60676;BME280;46716;38.014;-7.874;2022-11-18T07:39:43;99981.81;;;11.79;100.00
60676;BME280;46716;38.014;-7.874;2022-11-18T07:41:44;99974.66;;;11.81;100.00
60676;BME280;46716;38.014;-7.874;2022-11-18T07:43:47;99967.50;;;11.83;100.00
60676;BME280;46716;38.014;-7.874;2022-11-18T07:45:49;99978.88;;;11.85;100.00
60676;BME280;46716;38.014;-7.874;2022-11-18T07:47:50;99976.22;;;11.85;100.00
60676;BME280;46716;38.014;-7.874;2022-11-18T07:49:51;99979.63;;;11.87;100.00
60676;BME280;46716;38.014;-7.874;2022-11-18T07:51:52;99975.22;;;11.88;100.00
60676;BME280;46716;38.014;-7.874;2022-11-18T07:53:54;99984.09;;;11.87;100.00
60676;BME280;46716;38.014;-7.874;2022-11-18T07:55:55;99996.31;;;11.89;100.00
60676;BME280;46716;38.014;-7.874;2022-11-18T07:57:56;100001.59;;;11.89;100.00
60676;BME280;46716;38.014;-7.874;2022-11-18T07:59:56;100005.94;;;11.91;100.00
60676;BME280;46716;38.014;-7.874;2022-11-18T08:01:57;100010.28;;;11.92;100.00
60676;BME280;46716;38.014;-7.874;2022-11-18T08:04:10;100011.22;;;11.91;100.00
60676;BME280;46716;38.014;-7.874;2022-11-18T08:06:14;100012.03;;;11.93;100.00
60676;BME280;46716;38.014;-7.874;2022-11-18T08:08:15;100025.25;;;11.93;100.00
60676;BME280;46716;38.014;-7.874;2022-11-18T08:10:16;100025.41;;;11.89;100.00
60676;BME280;46716;38.014;-7.874;2022-11-18T08:12:16;100036.75;;;11.92;100.00
60676;BME280;46716;38.014;-7.874;2022-11-18T08:14:17;100030.84;;;11.86;100.00
60676;BME280;46716;38.014;-7.874;2022-11-18T08:16:23;100045.69;;;11.89;100.00
60676;BME280;46716;38.014;-7.874;2022-11-18T08:18:26;100032.69;;;11.84;100.00
60676;BME280;46716;38.014;-7.874;2022-11-18T08:20:27;100047.44;;;11.90;100.00
60676;BME280;46716;38.014;-7.874;2022-11-18T08:22:28;100052.63;;;11.92;100.00
60676;BME280;46716;38.014;-7.874;2022-11-18T08:24:29;100056.13;;;11.92;100.00
60676;BME280;46716;38.014;-7.874;2022-11-18T08:26:30;100054.22;;;11.96;100.00
60676;BME280;46716;38.014;-7.874;2022-11-18T08:28:31;100059.50;;;11.96;100.00
60676;BME280;46716;38.014;-7.874;2022-11-18T08:30:33;100067.44;;;11.96;100.00
60676;BME280;46716;38.014;-7.874;2022-11-18T08:32:34;100068.28;;;11.96;100.00
60676;BME280;46716;38.014;-7.874;2022-11-18T08:34:35;100076.22;;;11.96;100.00
60676;BME280;46716;38.014;-7.874;2022-11-18T08:36:37;100073.63;;;11.95;100.00
60676;BME280;46716;38.014;-7.874;2022-11-18T08:38:38;100066.28;;;12.01;100.00
60676;BME280;46716;38.014;-7.874;2022-11-18T08:40:42;100073.19;;;12.04;100.00
60676;BME280;46716;38.014;-7.874;2022-11-18T08:42:44;100073.06;;;12.07;100.00
60676;BME280;46716;38.014;-7.874;2022-11-18T08:44:45;100079.00;;;12.12;100.00
60676;BME280;46716;38.014;-7.874;2022-11-18T08:46:46;100071.97;;;12.11;100.00
60676;BME280;46716;38.014;-7.874;2022-11-18T08:48:47;100089.59;;;12.12;100.00
60676;BME280;46716;38.014;-7.874;2022-11-18T08:50:48;100095.81;;;12.11;100.00
60676;BME280;46716;38.014;-7.874;2022-11-18T08:52:49;100109.28;;;12.05;100.00
60676;BME280;46716;38.014;-7.874;2022-11-18T08:54:50;100118.31;;;12.01;100.00
60676;BME280;46716;38.014;-7.874;2022-11-18T08:56:50;100112.41;;;11.96;100.00
60676;BME280;46716;38.014;-7.874;2022-11-18T08:58:52;100125.84;;;12.10;100.00
60676;BME280;46716;38.014;-7.874;2022-11-18T09:00:53;100111.09;;;12.24;100.00
60676;BME280;46716;38.014;-7.874;2022-11-18T09:02:54;100126.03;;;12.60;100.00
60676;BME280;46716;38.014;-7.874;2022-11-18T09:04:55;100116.53;;;12.92;100.00
60676;BME280;46716;38.014;-7.874;2022-11-18T09:06:56;100126.09;;;13.28;100.00
60676;BME280;46716;38.014;-7.874;2022-11-18T09:08:57;100135.88;;;13.61;100.00
60676;BME280;46716;38.014;-7.874;2022-11-18T09:10:58;100141.25;;;13.76;100.00
60676;BME280;46716;38.014;-7.874;2022-11-18T09:12:59;100132.88;;;14.00;100.00
60676;BME280;46716;38.014;-7.874;2022-11-18T09:15:00;100137.88;;;14.21;100.00
60676;BME280;46716;38.014;-7.874;2022-11-18T09:17:01;100141.06;;;14.58;100.00
60676;BME280;46716;38.014;-7.874;2022-11-18T09:19:03;100148.31;;;15.01;100.00
60676;BME280;46716;38.014;-7.874;2022-11-18T09:21:06;100150.59;;;15.37;100.00
60676;BME280;46716;38.014;-7.874;2022-11-18T09:23:07;100145.50;;;15.76;100.00
60676;BME280;46716;38.014;-7.874;2022-11-18T09:25:08;100135.75;;;16.18;100.00
60676;BME280;46716;38.014;-7.874;2022-11-18T09:27:09;100141.81;;;16.61;100.00
60676;BME280;46716;38.014;-7.874;2022-11-18T09:29:10;100142.31;;;17.07;100.00
60676;BME280;46716;38.014;-7.874;2022-11-18T09:31:13;100149.22;;;17.49;100.00
60676;BME280;46716;38.014;-7.874;2022-11-18T09:33:14;100155.31;;;17.88;100.00
60676;BME280;46716;38.014;-7.874;2022-11-18T09:35:16;100161.44;;;18.15;100.00
60676;BME280;46716;38.014;-7.874;2022-11-18T09:37:17;100155.53;;;18.23;100.00
60676;BME280;46716;38.014;-7.874;2022-11-18T09:39:18;100162.84;;;18.56;100.00
60676;BME280;46716;38.014;-7.874;2022-11-18T09:46:16;100165.34;;;19.41;97.66
60676;BME280;46716;38.014;-7.874;2022-11-18T09:48:21;100168.00;;;19.41;93.93
60676;BME280;46716;38.014;-7.874;2022-11-18T09:50:42;100168.75;;;19.55;93.55
60676;BME280;46716;38.014;-7.874;2022-11-18T09:54:52;100176.25;;;20.18;90.96
60676;BME280;46716;38.014;-7.874;2022-11-18T09:56:54;100171.56;;;20.32;84.22
60676;BME280;46716;38.014;-7.874;2022-11-18T09:58:55;100177.34;;;20.49;84.64
60676;BME280;46716;38.014;-7.874;2022-11-18T10:00:56;100178.78;;;20.53;86.56
60676;BME280;46716;38.014;-7.874;2022-11-18T10:03:03;100184.47;;;20.38;84.04
60676;BME280;46716;38.014;-7.874;2022-11-18T10:05:21;100191.00;;;20.13;84.14
60676;BME280;46716;38.014;-7.874;2022-11-18T10:07:35;100193.78;;;20.22;83.69
60676;BME280;46716;38.014;-7.874;2022-11-18T10:09:42;100181.16;;;20.02;79.15
60676;BME280;46716;38.014;-7.874;2022-11-18T10:12:26;100193.56;;;19.91;78.22
60676;BME280;46716;38.014;-7.874;2022-11-18T10:15:15;100191.34;;;19.96;74.49
60676;BME280;46716;38.014;-7.874;2022-11-18T10:19:46;100197.84;;;19.59;71.68
60676;BME280;46716;38.014;-7.874;2022-11-18T10:24:02;100208.16;;;19.99;70.91
60676;BME280;46716;38.014;-7.874;2022-11-18T10:26:05;100196.50;;;20.44;73.31
60676;BME280;46716;38.014;-7.874;2022-11-18T10:28:31;100207.13;;;20.67;68.18
60676;BME280;46716;38.014;-7.874;2022-11-18T10:30:32;100197.41;;;20.87;66.77
60676;BME280;46716;38.014;-7.874;2022-11-18T10:32:33;100201.88;;;21.19;65.21
60676;BME280;46716;38.014;-7.874;2022-11-18T10:34:50;100211.94;;;20.84;64.06
60676;BME280;46716;38.014;-7.874;2022-11-18T10:37:04;100217.28;;;20.63;64.52
60676;BME280;46716;38.014;-7.874;2022-11-18T10:39:08;100212.25;;;20.70;67.10
60676;BME280;46716;38.014;-7.874;2022-11-18T10:41:20;100212.25;;;20.37;64.62
60676;BME280;46716;38.014;-7.874;2022-11-18T10:45:48;100216.84;;;19.45;67.82
60676;BME280;46716;38.014;-7.874;2022-11-18T10:50:46;100217.16;;;19.17;67.48
60676;BME280;46716;38.014;-7.874;2022-11-18T10:52:51;100215.34;;;19.18;67.91
60676;BME280;46716;38.014;-7.874;2022-11-18T10:55:25;100213.31;;;19.67;67.24
60676;BME280;46716;38.014;-7.874;2022-11-18T10:57:29;100204.53;;;20.77;65.01
60676;BME280;46716;38.014;-7.874;2022-11-18T10:59:49;100199.81;;;21.64;62.82
60676;BME280;46716;38.014;-7.874;2022-11-18T11:02:20;100210.66;;;21.21;58.73
60676;BME280;46716;38.014;-7.874;2022-11-18T11:04:24;100214.66;;;20.52;59.33
60676;BME280;46716;38.014;-7.874;2022-11-18T11:08:29;100204.94;;;18.66;62.63
60676;BME280;46716;38.014;-7.874;2022-11-18T11:10:30;100217.38;;;18.42;66.42
60676;BME280;46716;38.014;-7.874;2022-11-18T11:12:41;100206.25;;;19.43;67.59
60676;BME280;46716;38.014;-7.874;2022-11-18T11:14:55;100211.81;;;20.86;64.15
60676;BME280;46716;38.014;-7.874;2022-11-18T11:19:01;100204.56;;;23.02;59.20
60676;BME280;46716;38.014;-7.874;2022-11-18T11:21:19;100207.66;;;23.65;52.19
60676;BME280;46716;38.014;-7.874;2022-11-18T11:23:22;100204.97;;;23.65;48.42